sensor_id;sensor_type;location;lat;lon;timestamp;P1;durP1;ratioP1;P2;durP2;ratioP2
9409;SDS011;4744;52.576;13.568;2024-02-26T00:02:15;11.25;;;6.78;;
9409;SDS011;4744;52.576;13.568;2024-02-26T00:04:43;9.52;;;6.55;;
9409;SDS011;4744;52.576;13.568;2024-02-26T00:07:10;9.52;;;7.15;;
9409;SDS011;4744;52.576;13.568;2024-02-26T00:09:37;9.90;;;6.65;;
9409;SDS011;4744;52.576;13.568;2024-02-26T00:12:04;10.85;;;6.53;;
9409;SDS011;4744;52.576;13.568;2024-02-26T00:14:31;9.10;;;6.57;;
9409;SDS011;4744;52.576;13.568;2024-02-26T00:16:58;10.00;;;6.40;;
9409;SDS011;4744;52.576;13.568;2024-02-26T00:19:25;9.70;;;7.22;;
9409;SDS011;4744;52.576;13.568;2024-02-26T00:21:54;7.55;;;6.13;;
9409;SDS011;4744;52.576;13.568;2024-02-26T00:24:21;9.05;;;5.70;;
9409;SDS011;4744;52.576;13.568;2024-02-26T00:26:48;12.10;;;6.90;;
9409;SDS011;4744;52.576;13.568;2024-02-26T00:29:19;9.63;;;6.50;;
9409;SDS011;4744;52.576;13.568;2024-02-26T00:31:46;7.88;;;5.38;;
9409;SDS011;4744;52.576;13.568;2024-02-26T00:34:13;8.10;;;5.95;;
9409;SDS011;4744;52.576;13.568;2024-02-26T00:36:40;9.18;;;6.55;;
9409;SDS011;4744;52.576;13.568;2024-02-26T00:39:08;12.18;;;6.95;;
9409;SDS011;4744;52.576;13.568;2024-02-26T00:41:38;9.65;;;6.32;;
9409;SDS011;4744;52.576;13.568;2024-02-26T00:44:05;10.85;;;6.43;;
9409;SDS011;4744;52.576;13.568;2024-02-26T00:46:32;10.70;;;6.38;;
9409;SDS011;4744;52.576;13.568;2024-02-26T00:48:59;8.18;;;5.43;;
9409;SDS011;4744;52.576;13.568;2024-02-26T00:51:26;9.57;;;6.57;;
9409;SDS011;4744;52.576;13.568;2024-02-26T00:53:54;10.82;;;6.38;;
9409;SDS011;4744;52.576;13.568;2024-02-26T00:56:22;9.20;;;6.13;;
9409;SDS011;4744;52.576;13.568;2024-02-26T00:58:49;10.63;;;5.75;;
9409;SDS011;4744;52.576;13.568;2024-02-26T01:01:16;7.88;;;5.70;;
9409;SDS011;4744;52.576;13.568;2024-02-26T01:03:43;8.00;;;5.65;;
9409;SDS011;4744;52.576;13.568;2024-02-26T01:06:10;7.53;;;4.68;;
9409;SDS011;4744;52.576;13.568;2024-02-26T01:08:37;8.80;;;5.57;;
9409;SDS011;4744;52.576;13.568;2024-02-26T01:11:04;10.43;;;6.03;;
9409;SDS011;4744;52.576;13.568;2024-02-26T01:13:32;9.30;;;4.90;;
9409;SDS011;4744;52.576;13.568;2024-02-26T01:15:59;7.35;;;4.80;;
9409;SDS011;4744;52.576;13.568;2024-02-26T01:18:26;6.47;;;4.30;;
9409;SDS011;4744;52.576;13.568;2024-02-26T01:20:53;7.13;;;5.18;;
9409;SDS011;4744;52.576;13.568;2024-02-26T01:23:20;7.55;;;4.95;;
9409;SDS011;4744;52.576;13.568;2024-02-26T01:25:47;8.77;;;5.18;;
9409;SDS011;4744;52.576;13.568;2024-02-26T01:28:14;5.68;;;4.40;;
9409;SDS011;4744;52.576;13.568;2024-02-26T01:30:42;6.18;;;4.25;;
9409;SDS011;4744;52.576;13.568;2024-02-26T01:33:10;8.25;;;4.78;;
9409;SDS011;4744;52.576;13.568;2024-02-26T01:35:37;5.75;;;4.15;;
9409;SDS011;4744;52.576;13.568;2024-02-26T01:38:04;6.88;;;4.78;;
9409;SDS011;4744;52.576;13.568;2024-02-26T01:40:32;7.95;;;5.07;;
9409;SDS011;4744;52.576;13.568;2024-02-26T01:42:59;6.65;;;4.85;;
9409;SDS011;4744;52.576;13.568;2024-02-26T01:45:26;6.18;;;3.88;;
9409;SDS011;4744;52.576;13.568;2024-02-26T01:47:55;5.55;;;4.20;;
9409;SDS011;4744;52.576;13.568;2024-02-26T01:50:22;5.85;;;4.18;;
9409;SDS011;4744;52.576;13.568;2024-02-26T01:52:50;5.80;;;4.55;;
9409;SDS011;4744;52.576;13.568;2024-02-26T01:55:18;9.98;;;3.90;;
9409;SDS011;4744;52.576;13.568;2024-02-26T01:57:47;6.03;;;4.25;;
9409;SDS011;4744;52.576;13.568;2024-02-26T02:00:16;6.13;;;4.32;;
9409;SDS011;4744;52.576;13.568;2024-02-26T02:02:45;6.90;;;4.30;;
9409;SDS011;4744;52.576;13.568;2024-02-26T02:05:15;6.72;;;4.80;;
9409;SDS011;4744;52.576;13.568;2024-02-26T02:07:43;6.53;;;3.78;;
9409;SDS011;4744;52.576;13.568;2024-02-26T02:10:11;5.53;;;4.35;;
9409;SDS011;4744;52.576;13.568;2024-02-26T02:12:38;7.93;;;4.93;;
9409;SDS011;4744;52.576;13.568;2024-02-26T02:15:06;5.72;;;4.53;;
9409;SDS011;4744;52.576;13.568;2024-02-26T02:17:34;6.13;;;5.30;;
9409;SDS011;4744;52.576;13.568;2024-02-26T02:20:01;6.95;;;4.65;;
9409;SDS011;4744;52.576;13.568;2024-02-26T02:22:29;7.97;;;5.25;;
9409;SDS011;4744;52.576;13.568;2024-02-26T02:24:58;6.25;;;4.40;;
9409;SDS011;4744;52.576;13.568;2024-02-26T02:27:25;8.15;;;4.78;;
9409;SDS011;4744;52.576;13.568;2024-02-26T02:29:53;8.00;;;4.78;;
9409;SDS011;4744;52.576;13.568;2024-02-26T02:32:20;7.18;;;5.07;;
9409;SDS011;4744;52.576;13.568;2024-02-26T02:34:49;8.52;;;5.13;;
9409;SDS011;4744;52.576;13.568;2024-02-26T02:37:16;6.10;;;5.05;;
9409;SDS011;4744;52.576;13.568;2024-02-26T02:39:44;8.52;;;5.50;;
9409;SDS011;4744;52.576;13.568;2024-02-26T02:42:11;9.13;;;5.20;;
9409;SDS011;4744;52.576;13.568;2024-02-26T02:44:38;7.45;;;4.85;;
9409;SDS011;4744;52.576;13.568;2024-02-26T02:47:05;6.72;;;4.70;;
9409;SDS011;4744;52.576;13.568;2024-02-26T02:49:32;9.70;;;5.90;;
9409;SDS011;4744;52.576;13.568;2024-02-26T02:51:59;8.45;;;5.20;;
9409;SDS011;4744;52.576;13.568;2024-02-26T02:54:26;7.10;;;5.15;;
9409;SDS011;4744;52.576;13.568;2024-02-26T02:56:54;7.82;;;5.38;;
9409;SDS011;4744;52.576;13.568;2024-02-26T02:59:21;7.10;;;5.50;;
9409;SDS011;4744;52.576;13.568;2024-02-26T03:01:48;6.53;;;5.32;;
9409;SDS011;4744;52.576;13.568;2024-02-26T03:04:15;8.55;;;5.00;;
9409;SDS011;4744;52.576;13.568;2024-02-26T03:06:42;7.97;;;5.32;;
9409;SDS011;4744;52.576;13.568;2024-02-26T03:09:09;7.05;;;4.70;;
9409;SDS011;4744;52.576;13.568;2024-02-26T03:11:36;7.43;;;4.93;;
9409;SDS011;4744;52.576;13.568;2024-02-26T03:14:05;6.63;;;4.70;;
9409;SDS011;4744;52.576;13.568;2024-02-26T03:16:32;8.02;;;4.60;;
9409;SDS011;4744;52.576;13.568;2024-02-26T03:18:59;6.72;;;4.32;;
9409;SDS011;4744;52.576;13.568;2024-02-26T03:21:26;7.00;;;4.85;;
9409;SDS011;4744;52.576;13.568;2024-02-26T03:23:53;8.48;;;5.00;;
9409;SDS011;4744;52.576;13.568;2024-02-26T03:26:21;7.20;;;4.72;;
9409;SDS011;4744;52.576;13.568;2024-02-26T03:28:48;8.25;;;5.10;;
9409;SDS011;4744;52.576;13.568;2024-02-26T03:31:16;8.07;;;4.90;;
9409;SDS011;4744;52.576;13.568;2024-02-26T03:33:43;7.05;;;4.53;;
9409;SDS011;4744;52.576;13.568;2024-02-26T03:36:10;8.10;;;4.93;;
9409;SDS011;4744;52.576;13.568;2024-02-26T03:38:36;11.20;;;4.90;;
9409;SDS011;4744;52.576;13.568;2024-02-26T03:41:04;7.75;;;5.18;;
9409;SDS011;4744;52.576;13.568;2024-02-26T03:43:30;7.53;;;4.80;;
9409;SDS011;4744;52.576;13.568;2024-02-26T03:45:58;7.35;;;4.75;;
9409;SDS011;4744;52.576;13.568;2024-02-26T03:48:26;9.13;;;5.63;;
9409;SDS011;4744;52.576;13.568;2024-02-26T03:50:53;7.00;;;5.28;;
9409;SDS011;4744;52.576;13.568;2024-02-26T03:53:20;8.65;;;4.70;;
9409;SDS011;4744;52.576;13.568;2024-02-26T03:55:47;7.82;;;5.07;;
9409;SDS011;4744;52.576;13.568;2024-02-26T03:58:14;9.88;;;5.10;;
9409;SDS011;4744;52.576;13.568;2024-02-26T04:00:42;10.25;;;5.50;;
9409;SDS011;4744;52.576;13.568;2024-02-26T04:03:09;9.15;;;6.43;;
9409;SDS011;4744;52.576;13.568;2024-02-26T04:05:37;11.55;;;6.53;;
9409;SDS011;4744;52.576;13.568;2024-02-26T04:08:04;10.77;;;6.78;;
9409;SDS011;4744;52.576;13.568;2024-02-26T04:10:32;10.88;;;6.35;;
9409;SDS011;4744;52.576;13.568;2024-02-26T04:13:03;10.10;;;6.05;;
9409;SDS011;4744;52.576;13.568;2024-02-26T04:15:30;11.68;;;6.63;;
9409;SDS011;4744;52.576;13.568;2024-02-26T04:17:58;9.32;;;6.18;;
9409;SDS011;4744;52.576;13.568;2024-02-26T04:20:25;11.68;;;6.72;;
9409;SDS011;4744;52.576;13.568;2024-02-26T04:22:53;9.65;;;6.10;;
9409;SDS011;4744;52.576;13.568;2024-02-26T04:25:20;9.75;;;6.05;;
9409;SDS011;4744;52.576;13.568;2024-02-26T04:27:47;9.07;;;5.78;;
9409;SDS011;4744;52.576;13.568;2024-02-26T04:30:14;7.95;;;5.70;;
9409;SDS011;4744;52.576;13.568;2024-02-26T04:32:42;8.50;;;5.45;;
9409;SDS011;4744;52.576;13.568;2024-02-26T04:35:09;7.95;;;5.07;;
9409;SDS011;4744;52.576;13.568;2024-02-26T04:37:36;11.02;;;6.05;;
9409;SDS011;4744;52.576;13.568;2024-02-26T04:40:05;8.38;;;5.25;;
9409;SDS011;4744;52.576;13.568;2024-02-26T04:42:33;7.18;;;4.85;;
9409;SDS011;4744;52.576;13.568;2024-02-26T04:45:00;10.27;;;5.13;;
9409;SDS011;4744;52.576;13.568;2024-02-26T04:47:27;8.05;;;5.47;;
9409;SDS011;4744;52.576;13.568;2024-02-26T04:49:55;12.38;;;6.50;;
9409;SDS011;4744;52.576;13.568;2024-02-26T04:52:22;7.50;;;4.93;;
9409;SDS011;4744;52.576;13.568;2024-02-26T04:54:48;9.15;;;5.35;;
9409;SDS011;4744;52.576;13.568;2024-02-26T04:57:17;9.68;;;5.95;;
9409;SDS011;4744;52.576;13.568;2024-02-26T04:59:44;9.38;;;5.65;;
9409;SDS011;4744;52.576;13.568;2024-02-26T05:02:11;10.07;;;5.72;;
9409;SDS011;4744;52.576;13.568;2024-02-26T05:04:38;10.23;;;5.03;;
9409;SDS011;4744;52.576;13.568;2024-02-26T05:07:05;9.07;;;5.50;;
9409;SDS011;4744;52.576;13.568;2024-02-26T05:09:32;7.85;;;5.63;;
9409;SDS011;4744;52.576;13.568;2024-02-26T05:11:58;8.63;;;5.95;;
9409;SDS011;4744;52.576;13.568;2024-02-26T05:14:27;8.15;;;5.40;;
9409;SDS011;4744;52.576;13.568;2024-02-26T05:16:54;10.82;;;6.05;;
9409;SDS011;4744;52.576;13.568;2024-02-26T05:19:21;11.38;;;7.07;;
9409;SDS011;4744;52.576;13.568;2024-02-26T05:21:48;10.32;;;6.80;;
9409;SDS011;4744;52.576;13.568;2024-02-26T05:24:15;13.43;;;7.25;;
9409;SDS011;4744;52.576;13.568;2024-02-26T05:26:42;12.18;;;6.93;;
9409;SDS011;4744;52.576;13.568;2024-02-26T05:29:09;11.85;;;7.70;;
9409;SDS011;4744;52.576;13.568;2024-02-26T05:31:38;15.43;;;8.05;;
9409;SDS011;4744;52.576;13.568;2024-02-26T05:34:04;13.02;;;7.90;;
9409;SDS011;4744;52.576;13.568;2024-02-26T05:36:31;11.98;;;7.43;;
9409;SDS011;4744;52.576;13.568;2024-02-26T05:38:59;17.38;;;8.10;;
9409;SDS011;4744;52.576;13.568;2024-02-26T05:41:26;12.45;;;7.63;;
9409;SDS011;4744;52.576;13.568;2024-02-26T05:43:53;11.30;;;7.20;;
9409;SDS011;4744;52.576;13.568;2024-02-26T05:46:20;11.02;;;7.47;;
9409;SDS011;4744;52.576;13.568;2024-02-26T05:48:49;13.50;;;7.53;;
9409;SDS011;4744;52.576;13.568;2024-02-26T05:51:17;13.85;;;7.03;;
9409;SDS011;4744;52.576;13.568;2024-02-26T05:53:43;17.90;;;8.80;;
9409;SDS011;4744;52.576;13.568;2024-02-26T05:56:11;11.82;;;7.55;;
9409;SDS011;4744;52.576;13.568;2024-02-26T05:58:38;15.18;;;7.75;;
9409;SDS011;4744;52.576;13.568;2024-02-26T06:01:05;14.38;;;7.63;;
9409;SDS011;4744;52.576;13.568;2024-02-26T06:03:32;13.00;;;7.78;;
9409;SDS011;4744;52.576;13.568;2024-02-26T06:06:00;14.80;;;8.35;;
9409;SDS011;4744;52.576;13.568;2024-02-26T06:08:27;16.88;;;8.65;;
9409;SDS011;4744;52.576;13.568;2024-02-26T06:10:54;12.50;;;7.65;;
9409;SDS011;4744;52.576;13.568;2024-02-26T06:13:21;12.32;;;7.25;;
9409;SDS011;4744;52.576;13.568;2024-02-26T06:15:48;12.48;;;7.13;;
9409;SDS011;4744;52.576;13.568;2024-02-26T06:18:15;14.40;;;6.88;;
9409;SDS011;4744;52.576;13.568;2024-02-26T06:20:42;12.93;;;7.63;;
9409;SDS011;4744;52.576;13.568;2024-02-26T06:23:10;13.55;;;7.68;;
9409;SDS011;4744;52.576;13.568;2024-02-26T06:25:37;14.30;;;8.68;;
9409;SDS011;4744;52.576;13.568;2024-02-26T06:28:04;12.23;;;7.60;;
9409;SDS011;4744;52.576;13.568;2024-02-26T06:30:31;13.75;;;7.70;;
9409;SDS011;4744;52.576;13.568;2024-02-26T06:32:58;12.60;;;7.78;;
9409;SDS011;4744;52.576;13.568;2024-02-26T06:35:25;13.32;;;7.13;;
9409;SDS011;4744;52.576;13.568;2024-02-26T06:37:52;14.35;;;8.05;;
9409;SDS011;4744;52.576;13.568;2024-02-26T06:40:21;18.25;;;10.10;;
9409;SDS011;4744;52.576;13.568;2024-02-26T06:42:48;17.63;;;10.45;;
9409;SDS011;4744;52.576;13.568;2024-02-26T06:45:15;22.52;;;10.73;;
9409;SDS011;4744;52.576;13.568;2024-02-26T06:47:42;21.58;;;10.40;;
9409;SDS011;4744;52.576;13.568;2024-02-26T06:50:11;19.50;;;10.25;;
9409;SDS011;4744;52.576;13.568;2024-02-26T06:52:38;22.92;;;10.85;;
9409;SDS011;4744;52.576;13.568;2024-02-26T06:55:05;20.35;;;11.30;;
9409;SDS011;4744;52.576;13.568;2024-02-26T06:57:34;20.08;;;10.38;;
9409;SDS011;4744;52.576;13.568;2024-02-26T07:00:01;21.63;;;10.07;;
9409;SDS011;4744;52.576;13.568;2024-02-26T07:02:29;19.98;;;10.82;;
9409;SDS011;4744;52.576;13.568;2024-02-26T07:04:56;18.17;;;10.60;;
9409;SDS011;4744;52.576;13.568;2024-02-26T07:07:23;18.92;;;9.43;;
9409;SDS011;4744;52.576;13.568;2024-02-26T07:09:51;22.70;;;11.68;;
9409;SDS011;4744;52.576;13.568;2024-02-26T07:12:17;20.13;;;10.75;;
9409;SDS011;4744;52.576;13.568;2024-02-26T07:14:47;19.73;;;10.95;;
9409;SDS011;4744;52.576;13.568;2024-02-26T07:17:15;22.00;;;10.77;;
9409;SDS011;4744;52.576;13.568;2024-02-26T07:19:42;20.90;;;10.98;;
9409;SDS011;4744;52.576;13.568;2024-02-26T07:22:09;17.85;;;10.15;;
9409;SDS011;4744;52.576;13.568;2024-02-26T07:24:36;20.85;;;11.15;;
9409;SDS011;4744;52.576;13.568;2024-02-26T07:27:03;17.33;;;10.25;;
9409;SDS011;4744;52.576;13.568;2024-02-26T07:29:30;19.73;;;11.07;;
9409;SDS011;4744;52.576;13.568;2024-02-26T07:31:58;17.50;;;10.07;;
9409;SDS011;4744;52.576;13.568;2024-02-26T07:34:25;18.95;;;11.15;;
9409;SDS011;4744;52.576;13.568;2024-02-26T07:36:54;18.23;;;9.48;;
9409;SDS011;4744;52.576;13.568;2024-02-26T07:39:21;14.77;;;9.75;;
9409;SDS011;4744;52.576;13.568;2024-02-26T07:41:48;16.90;;;9.98;;
9409;SDS011;4744;52.576;13.568;2024-02-26T07:44:16;15.30;;;9.45;;
9409;SDS011;4744;52.576;13.568;2024-02-26T07:46:43;16.85;;;8.95;;
9409;SDS011;4744;52.576;13.568;2024-02-26T07:49:12;19.27;;;10.20;;
9409;SDS011;4744;52.576;13.568;2024-02-26T07:51:39;17.38;;;10.18;;
9409;SDS011;4744;52.576;13.568;2024-02-26T07:54:05;17.48;;;10.32;;
9409;SDS011;4744;52.576;13.568;2024-02-26T07:56:32;19.88;;;10.57;;
9409;SDS011;4744;52.576;13.568;2024-02-26T07:58:59;17.70;;;9.85;;
9409;SDS011;4744;52.576;13.568;2024-02-26T08:01:26;18.25;;;9.95;;
9409;SDS011;4744;52.576;13.568;2024-02-26T08:03:53;17.75;;;9.80;;
9409;SDS011;4744;52.576;13.568;2024-02-26T08:06:22;17.55;;;10.88;;
9409;SDS011;4744;52.576;13.568;2024-02-26T08:08:49;21.13;;;10.55;;
9409;SDS011;4744;52.576;13.568;2024-02-26T08:11:19;19.98;;;12.15;;
9409;SDS011;4744;52.576;13.568;2024-02-26T08:13:46;19.33;;;11.40;;
9409;SDS011;4744;52.576;13.568;2024-02-26T08:16:14;17.77;;;10.63;;
9409;SDS011;4744;52.576;13.568;2024-02-26T08:18:41;16.42;;;10.23;;
9409;SDS011;4744;52.576;13.568;2024-02-26T08:21:08;17.92;;;10.65;;
9409;SDS011;4744;52.576;13.568;2024-02-26T08:23:37;19.48;;;11.43;;
9409;SDS011;4744;52.576;13.568;2024-02-26T08:26:04;17.38;;;10.80;;
9409;SDS011;4744;52.576;13.568;2024-02-26T08:28:32;17.80;;;10.23;;
9409;SDS011;4744;52.576;13.568;2024-02-26T08:30:59;17.15;;;10.57;;
9409;SDS011;4744;52.576;13.568;2024-02-26T08:33:26;20.60;;;11.60;;
9409;SDS011;4744;52.576;13.568;2024-02-26T08:35:53;16.60;;;10.18;;
9409;SDS011;4744;52.576;13.568;2024-02-26T08:38:20;18.08;;;10.95;;
9409;SDS011;4744;52.576;13.568;2024-02-26T08:40:48;18.83;;;11.50;;
9409;SDS011;4744;52.576;13.568;2024-02-26T08:43:15;19.05;;;11.00;;
9409;SDS011;4744;52.576;13.568;2024-02-26T08:45:42;16.98;;;10.73;;
9409;SDS011;4744;52.576;13.568;2024-02-26T08:48:09;21.10;;;10.27;;
9409;SDS011;4744;52.576;13.568;2024-02-26T08:50:36;18.50;;;11.25;;
9409;SDS011;4744;52.576;13.568;2024-02-26T08:53:03;17.35;;;10.70;;
9409;SDS011;4744;52.576;13.568;2024-02-26T08:55:30;20.80;;;10.80;;
9409;SDS011;4744;52.576;13.568;2024-02-26T08:57:59;27.83;;;10.77;;
9409;SDS011;4744;52.576;13.568;2024-02-26T09:00:26;19.80;;;11.35;;
9409;SDS011;4744;52.576;13.568;2024-02-26T09:02:53;21.00;;;10.75;;
9409;SDS011;4744;52.576;13.568;2024-02-26T09:05:19;19.90;;;11.38;;
9409;SDS011;4744;52.576;13.568;2024-02-26T09:07:46;20.40;;;11.68;;
9409;SDS011;4744;52.576;13.568;2024-02-26T09:10:13;19.38;;;10.77;;
9409;SDS011;4744;52.576;13.568;2024-02-26T09:12:40;17.15;;;10.43;;
9409;SDS011;4744;52.576;13.568;2024-02-26T09:15:09;18.30;;;10.38;;
9409;SDS011;4744;52.576;13.568;2024-02-26T09:17:36;18.60;;;9.85;;
9409;SDS011;4744;52.576;13.568;2024-02-26T09:20:04;17.38;;;10.55;;
9409;SDS011;4744;52.576;13.568;2024-02-26T09:22:34;16.25;;;10.63;;
9409;SDS011;4744;52.576;13.568;2024-02-26T09:25:03;18.63;;;9.98;;
9409;SDS011;4744;52.576;13.568;2024-02-26T09:27:30;16.33;;;10.25;;
9409;SDS011;4744;52.576;13.568;2024-02-26T09:29:58;17.80;;;9.95;;
9409;SDS011;4744;52.576;13.568;2024-02-26T09:32:26;20.38;;;10.57;;
9409;SDS011;4744;52.576;13.568;2024-02-26T09:34:53;15.55;;;9.75;;
9409;SDS011;4744;52.576;13.568;2024-02-26T09:37:20;18.27;;;10.57;;
9409;SDS011;4744;52.576;13.568;2024-02-26T09:39:47;13.27;;;8.57;;
9409;SDS011;4744;52.576;13.568;2024-02-26T09:42:14;14.95;;;9.13;;
9409;SDS011;4744;52.576;13.568;2024-02-26T09:44:44;15.25;;;9.27;;
9409;SDS011;4744;52.576;13.568;2024-02-26T09:49:41;15.45;;;9.35;;
9409;SDS011;4744;52.576;13.568;2024-02-26T09:52:09;13.93;;;8.95;;
9409;SDS011;4744;52.576;13.568;2024-02-26T09:54:36;15.13;;;9.77;;
9409;SDS011;4744;52.576;13.568;2024-02-26T09:57:03;13.80;;;8.85;;
9409;SDS011;4744;52.576;13.568;2024-02-26T09:59:33;15.77;;;9.23;;
9409;SDS011;4744;52.576;13.568;2024-02-26T10:02:06;14.10;;;8.57;;
9409;SDS011;4744;52.576;13.568;2024-02-26T10:04:37;12.68;;;8.98;;
9409;SDS011;4744;52.576;13.568;2024-02-26T10:07:07;16.85;;;9.15;;
9409;SDS011;4744;52.576;13.568;2024-02-26T10:09:36;13.00;;;8.50;;
9409;SDS011;4744;52.576;13.568;2024-02-26T10:12:03;13.30;;;8.98;;
9409;SDS011;4744;52.576;13.568;2024-02-26T10:14:31;15.43;;;9.07;;
9409;SDS011;4744;52.576;13.568;2024-02-26T10:16:58;15.68;;;9.63;;
9409;SDS011;4744;52.576;13.568;2024-02-26T10:19:26;14.45;;;7.97;;
9409;SDS011;4744;52.576;13.568;2024-02-26T10:21:57;14.80;;;8.70;;
9409;SDS011;4744;52.576;13.568;2024-02-26T10:24:27;13.68;;;8.90;;
9409;SDS011;4744;52.576;13.568;2024-02-26T10:26:55;13.75;;;9.23;;
9409;SDS011;4744;52.576;13.568;2024-02-26T10:29:23;13.07;;;9.80;;
9409;SDS011;4744;52.576;13.568;2024-02-26T10:31:51;15.57;;;10.18;;
9409;SDS011;4744;52.576;13.568;2024-02-26T10:34:18;16.42;;;9.90;;
9409;SDS011;4744;52.576;13.568;2024-02-26T10:36:46;14.18;;;9.60;;
9409;SDS011;4744;52.576;13.568;2024-02-26T10:39:13;19.75;;;14.63;;
9409;SDS011;4744;52.576;13.568;2024-02-26T10:41:42;24.83;;;16.15;;
9409;SDS011;4744;52.576;13.568;2024-02-26T10:44:10;16.48;;;10.60;;
9409;SDS011;4744;52.576;13.568;2024-02-26T10:46:37;18.80;;;10.98;;
9409;SDS011;4744;52.576;13.568;2024-02-26T10:49:08;16.45;;;11.45;;
9409;SDS011;4744;52.576;13.568;2024-02-26T10:51:40;14.52;;;10.55;;
9409;SDS011;4744;52.576;13.568;2024-02-26T10:54:10;17.08;;;11.00;;
9409;SDS011;4744;52.576;13.568;2024-02-26T10:56:43;18.23;;;10.85;;
9409;SDS011;4744;52.576;13.568;2024-02-26T10:59:12;19.75;;;11.70;;
9409;SDS011;4744;52.576;13.568;2024-02-26T11:01:39;17.58;;;10.00;;
9409;SDS011;4744;52.576;13.568;2024-02-26T11:04:09;17.70;;;10.55;;
9409;SDS011;4744;52.576;13.568;2024-02-26T11:06:37;15.95;;;9.75;;
9409;SDS011;4744;52.576;13.568;2024-02-26T11:09:04;16.17;;;10.02;;
9409;SDS011;4744;52.576;13.568;2024-02-26T11:11:37;15.63;;;9.35;;
9409;SDS011;4744;52.576;13.568;2024-02-26T11:14:06;14.65;;;9.90;;
9409;SDS011;4744;52.576;13.568;2024-02-26T11:16:35;18.33;;;10.98;;
9409;SDS011;4744;52.576;13.568;2024-02-26T11:19:06;17.08;;;9.75;;
9409;SDS011;4744;52.576;13.568;2024-02-26T11:21:35;15.40;;;9.77;;
9409;SDS011;4744;52.576;13.568;2024-02-26T11:24:06;14.88;;;8.98;;
9409;SDS011;4744;52.576;13.568;2024-02-26T11:26:36;16.77;;;9.23;;
9409;SDS011;4744;52.576;13.568;2024-02-26T11:29:08;14.75;;;9.85;;
9409;SDS011;4744;52.576;13.568;2024-02-26T11:31:37;17.10;;;10.13;;
9409;SDS011;4744;52.576;13.568;2024-02-26T11:34:04;14.95;;;9.55;;
9409;SDS011;4744;52.576;13.568;2024-02-26T11:36:33;16.88;;;9.68;;
9409;SDS011;4744;52.576;13.568;2024-02-26T11:39:00;16.05;;;10.05;;
9409;SDS011;4744;52.576;13.568;2024-02-26T11:41:27;13.68;;;9.07;;
9409;SDS011;4744;52.576;13.568;2024-02-26T11:43:57;16.08;;;10.98;;
9409;SDS011;4744;52.576;13.568;2024-02-26T11:46:27;14.18;;;10.15;;
9409;SDS011;4744;52.576;13.568;2024-02-26T11:48:58;17.20;;;10.13;;
9409;SDS011;4744;52.576;13.568;2024-02-26T11:51:26;14.52;;;9.80;;
9409;SDS011;4744;52.576;13.568;2024-02-26T11:53:54;12.70;;;7.75;;
9409;SDS011;4744;52.576;13.568;2024-02-26T11:58:53;16.95;;;10.48;;
9409;SDS011;4744;52.576;13.568;2024-02-26T12:01:36;14.20;;;9.68;;
9409;SDS011;4744;52.576;13.568;2024-02-26T12:04:10;15.20;;;9.82;;
9409;SDS011;4744;52.576;13.568;2024-02-26T12:06:40;13.75;;;9.20;;
9409;SDS011;4744;52.576;13.568;2024-02-26T12:09:08;15.60;;;9.90;;
9409;SDS011;4744;52.576;13.568;2024-02-26T12:11:37;15.80;;;10.00;;
9409;SDS011;4744;52.576;13.568;2024-02-26T12:14:05;16.20;;;10.65;;
9409;SDS011;4744;52.576;13.568;2024-02-26T12:16:38;13.70;;;8.68;;
9409;SDS011;4744;52.576;13.568;2024-02-26T12:19:08;13.82;;;9.38;;
9409;SDS011;4744;52.576;13.568;2024-02-26T12:21:36;11.32;;;7.93;;
9409;SDS011;4744;52.576;13.568;2024-02-26T12:24:07;13.23;;;8.80;;
9409;SDS011;4744;52.576;13.568;2024-02-26T12:26:37;11.95;;;7.85;;
9409;SDS011;4744;52.576;13.568;2024-02-26T12:29:04;12.63;;;6.40;;
9409;SDS011;4744;52.576;13.568;2024-02-26T12:31:31;10.82;;;7.60;;
9409;SDS011;4744;52.576;13.568;2024-02-26T12:34:00;10.10;;;6.25;;
9409;SDS011;4744;52.576;13.568;2024-02-26T12:38:54;10.93;;;7.57;;
9409;SDS011;4744;52.576;13.568;2024-02-26T12:41:21;10.98;;;7.80;;
9409;SDS011;4744;52.576;13.568;2024-02-26T12:43:49;9.75;;;5.95;;
9409;SDS011;4744;52.576;13.568;2024-02-26T12:46:15;11.02;;;6.75;;
9409;SDS011;4744;52.576;13.568;2024-02-26T12:48:43;10.20;;;6.50;;
9409;SDS011;4744;52.576;13.568;2024-02-26T12:51:12;9.85;;;6.93;;
9409;SDS011;4744;52.576;13.568;2024-02-26T12:53:40;8.95;;;5.93;;
9409;SDS011;4744;52.576;13.568;2024-02-26T12:56:08;10.20;;;6.20;;
9409;SDS011;4744;52.576;13.568;2024-02-26T12:58:37;10.82;;;5.97;;
9409;SDS011;4744;52.576;13.568;2024-02-26T13:01:06;8.27;;;5.75;;
9409;SDS011;4744;52.576;13.568;2024-02-26T13:03:34;8.00;;;4.95;;
9409;SDS011;4744;52.576;13.568;2024-02-26T13:06:02;8.27;;;5.13;;
9409;SDS011;4744;52.576;13.568;2024-02-26T13:08:32;9.32;;;4.80;;
9409;SDS011;4744;52.576;13.568;2024-02-26T13:11:00;7.47;;;5.05;;
9409;SDS011;4744;52.576;13.568;2024-02-26T13:13:27;10.75;;;5.65;;
9409;SDS011;4744;52.576;13.568;2024-02-26T13:16:00;8.07;;;5.32;;
9409;SDS011;4744;52.576;13.568;2024-02-26T13:18:28;11.90;;;6.30;;
9409;SDS011;4744;52.576;13.568;2024-02-26T13:21:05;8.18;;;5.22;;
9409;SDS011;4744;52.576;13.568;2024-02-26T13:23:38;8.07;;;5.07;;
9409;SDS011;4744;52.576;13.568;2024-02-26T13:26:06;7.30;;;4.88;;
9409;SDS011;4744;52.576;13.568;2024-02-26T13:28:34;8.27;;;5.28;;
9409;SDS011;4744;52.576;13.568;2024-02-26T13:31:01;7.70;;;5.18;;
9409;SDS011;4744;52.576;13.568;2024-02-26T13:33:29;8.30;;;4.80;;
9409;SDS011;4744;52.576;13.568;2024-02-26T13:35:57;8.88;;;4.90;;
9409;SDS011;4744;52.576;13.568;2024-02-26T13:38:25;7.88;;;4.93;;
9409;SDS011;4744;52.576;13.568;2024-02-26T13:40:53;6.75;;;4.68;;
9409;SDS011;4744;52.576;13.568;2024-02-26T13:43:21;8.45;;;4.85;;
9409;SDS011;4744;52.576;13.568;2024-02-26T13:45:48;9.23;;;5.22;;
9409;SDS011;4744;52.576;13.568;2024-02-26T13:48:14;6.65;;;4.75;;
9409;SDS011;4744;52.576;13.568;2024-02-26T13:50:42;8.73;;;5.38;;
9409;SDS011;4744;52.576;13.568;2024-02-26T13:53:10;9.07;;;5.32;;
9409;SDS011;4744;52.576;13.568;2024-02-26T13:55:37;9.48;;;5.47;;
9409;SDS011;4744;52.576;13.568;2024-02-26T13:58:09;7.25;;;5.18;;
9409;SDS011;4744;52.576;13.568;2024-02-26T14:00:38;9.65;;;5.57;;
9409;SDS011;4744;52.576;13.568;2024-02-26T14:03:06;9.57;;;6.20;;
9409;SDS011;4744;52.576;13.568;2024-02-26T14:05:33;8.32;;;5.00;;
9409;SDS011;4744;52.576;13.568;2024-02-26T14:08:00;7.88;;;4.65;;
9409;SDS011;4744;52.576;13.568;2024-02-26T14:10:28;7.32;;;4.47;;
9409;SDS011;4744;52.576;13.568;2024-02-26T14:12:55;7.38;;;4.72;;
9409;SDS011;4744;52.576;13.568;2024-02-26T14:15:23;8.63;;;5.32;;
9409;SDS011;4744;52.576;13.568;2024-02-26T14:17:50;7.82;;;5.22;;
9409;SDS011;4744;52.576;13.568;2024-02-26T14:20:21;7.63;;;4.97;;
9409;SDS011;4744;52.576;13.568;2024-02-26T14:22:48;10.52;;;6.25;;
9409;SDS011;4744;52.576;13.568;2024-02-26T14:25:16;10.60;;;5.97;;
9409;SDS011;4744;52.576;13.568;2024-02-26T14:27:43;9.52;;;5.28;;
9409;SDS011;4744;52.576;13.568;2024-02-26T14:30:10;7.25;;;4.65;;
9409;SDS011;4744;52.576;13.568;2024-02-26T14:32:39;7.35;;;4.63;;
9409;SDS011;4744;52.576;13.568;2024-02-26T14:35:06;7.65;;;4.22;;
9409;SDS011;4744;52.576;13.568;2024-02-26T14:37:34;8.73;;;4.78;;
9409;SDS011;4744;52.576;13.568;2024-02-26T14:40:01;6.90;;;4.55;;
9409;SDS011;4744;52.576;13.568;2024-02-26T14:42:28;7.95;;;4.43;;
9409;SDS011;4744;52.576;13.568;2024-02-26T14:44:55;9.77;;;4.65;;
9409;SDS011;4744;52.576;13.568;2024-02-26T14:47:22;6.47;;;4.38;;
9409;SDS011;4744;52.576;13.568;2024-02-26T14:49:50;7.93;;;4.65;;
9409;SDS011;4744;52.576;13.568;2024-02-26T14:52:17;6.72;;;4.20;;
9409;SDS011;4744;52.576;13.568;2024-02-26T14:54:44;8.20;;;5.22;;
9409;SDS011;4744;52.576;13.568;2024-02-26T14:57:11;7.03;;;4.45;;
9409;SDS011;4744;52.576;13.568;2024-02-26T14:59:38;7.40;;;4.85;;
9409;SDS011;4744;52.576;13.568;2024-02-26T15:02:05;8.13;;;5.53;;